Time;durP1;ratioP1;P1;durP2;ratioP2;P2;SDS_P1;SDS_P2;PMS_P1;PMS_P2;Temp;Humidity;BMP_temperature;BMP_pressure;BME280_temperature;BME280_humidity;BME280_pressure;Samples;Min_cycle;Max_cycle;Signal;HPM_P1;HPM_P2
2023/11/24 00:00:47;;;;;;;12.20;7.70;;;;;;;2.19;100.00;97305.30;106638;1254;60486;-81
2023/11/24 00:03:15;;;;;;;10.10;6.60;;;;;;;2.22;100.00;97287.67;106065;1254;60447;-81
2023/11/24 00:05:43;;;;;;;10.60;7.80;;;;;;;2.24;100.00;97293.89;106207;1254;73774;-80
2023/11/24 00:08:10;;;;;;;10.30;7.30;;;;;;;2.22;100.00;97292.19;106144;1254;72426;-82
2023/11/24 00:10:38;;;;;;;11.20;7.70;;;;;;;2.25;100.00;97307.52;106151;1260;71391;-83
2023/11/24 00:13:06;;;;;;;11.00;7.90;;;;;;;2.27;100.00;97287.95;106148;1254;63367;-82
2023/11/24 00:15:35;;;;;;;12.10;8.20;;;;;;;2.25;100.00;97286.58;106032;1254;60623;-85
2023/11/24 00:18:04;;;;;;;11.20;7.40;;;;;;;2.20;100.00;97292.73;106262;1258;73847;-83
2023/11/24 00:20:32;;;;;;;10.90;7.90;;;;;;;2.23;100.00;97298.17;106546;1254;68770;-82
2023/11/24 00:23:00;;;;;;;12.30;8.20;;;;;;;2.25;100.00;97287.48;106488;1255;73006;-82
2023/11/24 00:25:31;;;;;;;11.80;8.60;;;;;;;2.26;100.00;97269.43;106454;1252;60943;-83
2023/11/24 00:27:59;;;;;;;11.20;8.10;;;;;;;2.25;100.00;97284.66;107501;1254;60411;-82
2023/11/24 00:30:27;;;;;;;12.80;7.80;;;;;;;2.26;100.00;97267.77;108057;1253;73839;-83
2023/11/24 00:32:55;;;;;;;14.50;9.30;;;;;;;2.30;100.00;97265.61;107425;1257;68847;-84
2023/11/24 00:35:23;;;;;;;11.40;8.20;;;;;;;2.30;100.00;97274.36;106489;1254;71443;-83
2023/11/24 00:37:51;;;;;;;12.50;8.30;;;;;;;2.29;100.00;97266.21;106070;1256;60855;-82
2023/11/24 00:40:18;;;;;;;12.60;7.80;;;;;;;2.30;100.00;97258.27;106231;1255;60516;-82
2023/11/24 00:42:46;;;;;;;12.70;8.10;;;;;;;2.29;100.00;97258.42;107360;1253;72624;-85
2023/11/24 00:45:14;;;;;;;13.10;8.40;;;;;;;2.27;100.00;97247.79;107667;1257;71227;-83
2023/11/24 00:47:42;;;;;;;13.20;8.20;;;;;;;2.27;100.00;97249.88;106379;1254;72125;-83
2023/11/24 00:50:10;;;;;;;11.50;7.90;;;;;;;2.26;100.00;97266.27;106408;1254;60830;-83
2023/11/24 00:52:38;;;;;;;10.60;7.20;;;;;;;2.24;99.99;97242.50;106318;1254;60539;-85
2023/11/24 00:55:06;;;;;;;12.80;9.20;;;;;;;2.22;100.00;97240.88;106420;1257;74763;-83
2023/11/24 00:57:34;;;;;;;11.70;7.70;;;;;;;2.19;100.00;97234.91;106169;1255;70322;-84
2023/11/24 01:00:06;;;;;;;15.30;9.00;;;;;;;2.17;100.00;97229.55;106332;1255;71680;-83
2023/11/24 01:02:36;;;;;;;12.10;8.60;;;;;;;2.15;100.00;97233.24;105972;1254;61203;-82
2023/11/24 01:05:08;;;;;;;14.50;8.80;;;;;;;2.14;100.00;97215.51;106277;1254;60622;-83
2023/11/24 01:07:35;;;;;;;12.30;8.50;;;;;;;2.12;100.00;97208.80;106046;1257;72121;-79
2023/11/24 01:10:03;;;;;;;11.40;8.00;;;;;;;2.11;100.00;97203.35;106005;1260;69006;-84
2023/11/24 01:12:31;;;;;;;16.30;8.50;;;;;;;2.03;100.00;97212.44;106024;1257;72617;-81
2023/11/24 01:14:59;;;;;;;13.00;8.10;;;;;;;2.02;100.00;97198.81;106105;1254;61122;-82
2023/11/24 01:17:26;;;;;;;11.60;8.20;;;;;;;2.03;100.00;97187.50;106259;1257;60482;-78
2023/11/24 01:19:54;;;;;;;11.90;8.10;;;;;;;2.03;100.00;97180.34;105713;1261;72580;-81
2023/11/24 01:22:24;;;;;;;12.20;7.60;;;;;;;1.95;100.00;97179.09;105930;1255;70158;-83
2023/11/24 01:24:52;;;;;;;12.30;8.00;;;;;;;1.94;100.00;97179.06;105967;1257;72697;-82
2023/11/24 01:27:20;;;;;;;12.70;8.10;;;;;;;1.96;100.00;97169.98;106133;1257;60463;-81
2023/11/24 01:29:49;;;;;;;11.30;8.50;;;;;;;1.96;100.00;97158.59;106370;1257;60332;-78
2023/11/24 01:32:17;;;;;;;11.90;8.20;;;;;;;1.99;100.00;97153.77;108248;1253;73809;-81
2023/11/24 01:34:44;;;;;;;12.60;8.40;;;;;;;1.94;100.00;97153.05;107103;1254;68929;-79
2023/11/24 01:37:12;;;;;;;12.20;8.00;;;;;;;1.96;100.00;97147.98;105972;1258;70472;-81
2023/11/24 01:39:40;;;;;;;12.90;8.20;;;;;;;1.99;100.00;97153.60;105952;1254;61292;-82
2023/11/24 01:42:07;;;;;;;12.20;8.70;;;;;;;2.00;100.00;97139.64;105900;1253;60408;-84
2023/11/24 01:44:35;;;;;;;12.50;8.70;;;;;;;1.99;100.00;97137.04;106170;1257;72693;-80
2023/11/24 01:47:06;;;;;;;12.30;9.30;;;;;;;1.98;100.00;97133.24;106045;1255;68870;-80
2023/11/24 01:49:34;;;;;;;16.50;9.30;;;;;;;1.95;100.00;97133.48;107336;1254;71390;-77
2023/11/24 01:52:02;;;;;;;13.20;8.20;;;;;;;1.90;100.00;97118.13;107670;1253;60460;-76
2023/11/24 01:54:33;;;;;;;13.80;9.50;;;;;;;1.93;100.00;97112.21;107652;1258;59222;-81
2023/11/24 01:57:06;;;;;;;12.70;9.00;;;;;;;1.94;100.00;97114.77;107906;1254;72766;-80
2023/11/24 01:59:35;;;;;;;13.60;8.70;;;;;;;1.92;100.00;97101.57;107751;1259;69031;-80
2023/11/24 02:02:03;;;;;;;13.80;8.90;;;;;;;1.97;100.00;97095.17;106647;1257;71419;-79
2023/11/24 02:04:31;;;;;;;12.40;7.60;;;;;;;1.98;100.00;97094.89;106276;1254;61763;-79
2023/11/24 02:07:00;;;;;;;13.70;8.80;;;;;;;2.00;100.00;97093.07;106191;1255;60802;-79
2023/11/24 02:09:30;;;;;;;15.40;9.90;;;;;;;2.00;100.00;97087.23;106265;1254;72556;-78
2023/11/24 02:11:58;;;;;;;15.40;9.20;;;;;;;2.01;100.00;97079.77;106124;1257;68706;-78
2023/11/24 02:14:25;;;;;;;14.70;8.90;;;;;;;2.03;100.00;97069.27;106259;1254;72524;-78
2023/11/24 02:16:53;;;;;;;11.50;8.30;;;;;;;2.05;100.00;97056.98;106181;1254;60923;-78
2023/11/24 02:19:21;;;;;;;13.50;8.90;;;;;;;2.05;100.00;97063.26;106172;1259;62560;-76
2023/11/24 02:21:49;;;;;;;13.20;8.80;;;;;;;2.02;100.00;97056.98;105891;1255;74772;-75
2023/11/24 02:24:16;;;;;;;12.30;8.00;;;;;;;2.10;100.00;97053.81;105831;1258;68977;-78
2023/11/24 02:26:44;;;;;;;11.50;8.00;;;;;;;2.15;100.00;97045.98;105867;1260;71511;-81
2023/11/24 02:29:12;;;;;;;12.00;8.10;;;;;;;2.15;100.00;97046.06;105975;1257;60536;-80
2023/11/24 02:31:40;;;;;;;12.00;7.80;;;;;;;2.13;100.00;97047.85;105937;1254;60408;-78
2023/11/24 02:34:08;;;;;;;12.10;7.40;;;;;;;2.21;100.00;97046.81;105872;1255;73933;-79
2023/11/24 02:36:37;;;;;;;11.10;7.60;;;;;;;2.25;100.00;97044.22;105837;1258;70300;-79
2023/11/24 02:39:05;;;;;;;12.50;7.80;;;;;;;2.29;100.00;97033.92;105926;1252;73137;-78
2023/11/24 02:41:35;;;;;;;11.30;7.10;;;;;;;2.32;100.00;97037.40;106167;1254;61657;-80
2023/11/24 02:44:02;;;;;;;9.30;6.00;;;;;;;2.30;100.00;97033.98;108097;1253;60418;-78
2023/11/24 02:46:30;;;;;;;10.10;7.40;;;;;;;2.35;100.00;97036.17;107606;1253;75026;-81
2023/11/24 02:48:57;;;;;;;11.20;7.90;;;;;;;2.43;100.00;97021.14;106021;1257;68851;-80
2023/11/24 02:51:25;;;;;;;10.00;7.00;;;;;;;2.46;100.00;97025.58;105836;1254;72482;-78
2023/11/24 02:53:53;;;;;;;11.50;7.70;;;;;;;2.45;100.00;97023.35;105912;1257;60537;-80
2023/11/24 02:56:20;;;;;;;9.90;6.40;;;;;;;2.48;100.00;97010.98;105970;1254;60441;-82
2023/11/24 02:58:48;;;;;;;10.30;6.90;;;;;;;2.53;100.00;97014.85;106138;1254;73838;-76
2023/11/24 03:01:15;;;;;;;11.10;7.50;;;;;;;2.55;99.64;97013.69;105936;1257;68858;-77
2023/11/24 03:03:43;;;;;;;11.30;7.20;;;;;;;2.61;99.49;96986.27;106110;1254;71865;-83
2023/11/24 03:06:12;;;;;;;11.00;7.40;;;;;;;2.64;99.24;96984.98;108131;1256;60927;-81
2023/11/24 03:08:40;;;;;;;10.30;6.70;;;;;;;2.69;99.19;96982.14;108032;1254;59332;-80
2023/11/24 03:11:08;;;;;;;9.40;6.80;;;;;;;2.68;99.10;96978.80;107211;1256;72580;-81
2023/11/24 03:13:35;;;;;;;9.20;6.50;;;;;;;2.69;99.13;96966.27;106013;1257;68966;-80
2023/11/24 03:16:03;;;;;;;13.00;7.20;;;;;;;2.74;98.60;96970.86;105931;1257;72674;-80
2023/11/24 03:18:31;;;;;;;10.60;6.50;;;;;;;2.78;98.74;96957.50;105894;1254;60444;-77
2023/11/24 03:20:59;;;;;;;13.00;7.30;;;;;;;2.76;97.96;96958.77;105984;1257;60520;-77
2023/11/24 03:23:26;;;;;;;10.50;7.10;;;;;;;2.78;97.70;96948.55;105856;1257;73890;-78
2023/11/24 03:25:56;;;;;;;10.40;6.40;;;;;;;2.82;97.33;96932.69;106141;1260;69306;-75
2023/11/24 03:28:24;;;;;;;11.30;7.40;;;;;;;2.84;96.92;96943.41;106047;1257;71348;-76
2023/11/24 03:30:52;;;;;;;8.60;6.90;;;;;;;2.87;97.00;96931.17;105772;1259;60970;-76
2023/11/24 03:33:20;;;;;;;12.10;7.50;;;;;;;2.87;96.55;96934.48;105722;1254;60339;-80
2023/11/24 03:35:47;;;;;;;14.80;7.50;;;;;;;2.88;96.81;96925.48;105612;1254;72652;-78
2023/11/24 03:38:15;;;;;;;9.60;7.20;;;;;;;2.91;96.31;96913.17;105853;1253;69173;-77
2023/11/24 03:40:43;;;;;;;10.00;6.70;;;;;;;2.89;96.32;96915.17;105894;1257;72648;-75
2023/11/24 03:43:10;;;;;;;9.90;6.80;;;;;;;2.93;95.40;96909.27;106007;1257;60888;-79
2023/11/24 03:45:38;;;;;;;8.30;4.90;;;;;;;2.98;94.92;96920.14;105984;1253;60447;-79
2023/11/24 03:48:06;;;;;;;15.90;8.80;;;;;;;3.05;94.72;96887.62;105882;1257;73800;-78
2023/11/24 03:50:33;;;;;;;11.20;7.30;;;;;;;3.07;95.04;96887.52;106171;1254;69997;-79
2023/11/24 03:53:01;;;;;;;10.70;6.70;;;;;;;3.03;94.98;96891.48;106249;1253;71075;-79
2023/11/24 03:55:28;;;;;;;8.70;6.10;;;;;;;3.03;95.13;96876.50;106014;1254;60986;-78
2023/11/24 03:57:56;;;;;;;8.10;5.40;;;;;;;3.08;94.56;96858.15;105986;1258;60395;-76
2023/11/24 04:00:23;;;;;;;8.40;5.60;;;;;;;3.11;94.34;96856.07;106109;1257;74103;-78
2023/11/24 04:02:51;;;;;;;10.70;6.50;;;;;;;3.12;93.51;96836.86;106097;1256;68827;-79
2023/11/24 04:05:19;;;;;;;9.70;6.20;;;;;;;3.15;93.28;96842.94;106045;1253;72763;-78
2023/11/24 04:07:46;;;;;;;9.10;6.30;;;;;;;3.18;93.14;96822.62;105986;1256;61937;-77
2023/11/24 04:10:14;;;;;;;7.90;5.00;;;;;;;3.20;93.37;96822.10;105854;1254;61032;-78
2023/11/24 04:12:41;;;;;;;8.60;6.00;;;;;;;3.21;92.82;96845.36;106078;1254;73821;-74
2023/11/24 04:15:09;;;;;;;9.00;6.40;;;;;;;3.24;92.63;96852.88;106455;1259;70622;-78
2023/11/24 04:17:38;;;;;;;7.10;5.70;;;;;;;3.28;93.16;96838.17;105862;1254;71430;-78
2023/11/24 04:20:09;;;;;;;12.70;6.50;;;;;;;3.26;92.81;96848.58;105943;1257;60386;-78
2023/11/24 04:22:36;;;;;;;10.20;7.00;;;;;;;3.23;93.45;96867.56;106043;1252;60357;-77
2023/11/24 04:25:04;;;;;;;7.70;6.10;;;;;;;3.25;93.46;96896.48;105859;1254;71497;-77
2023/11/24 04:27:33;;;;;;;9.60;6.20;;;;;;;3.27;93.39;96913.49;105918;1254;68595;-81
2023/11/24 04:30:01;;;;;;;10.20;6.00;;;;;;;3.25;93.86;96923.81;106278;1254;71276;-79
2023/11/24 04:32:30;;;;;;;9.90;6.10;;;;;;;3.30;93.75;96914.69;105919;1254;61586;-81
2023/11/24 04:34:58;;;;;;;8.20;5.50;;;;;;;3.34;93.60;96910.70;105976;1253;60450;-81
2023/11/24 04:37:26;;;;;;;6.80;5.10;;;;;;;3.30;93.23;96911.38;106226;1254;72743;-80
2023/11/24 04:39:55;;;;;;;7.80;6.10;;;;;;;3.31;92.77;96912.30;106523;1254;69952;-83
2023/11/24 04:42:24;;;;;;;31.00;20.00;;;;;;;3.41;92.69;96917.98;109080;1253;72488;-83
2023/11/24 04:44:53;;;;;;;9.70;7.30;;;;;;;3.46;92.94;96907.85;107179;1254;60550;-84
2023/11/24 04:47:21;;;;;;;7.10;5.40;;;;;;;3.42;93.08;96913.91;106256;1259;60352;-77
2023/11/24 04:49:48;;;;;;;8.00;6.00;;;;;;;3.42;92.87;96916.61;106044;1253;72589;-81
2023/11/24 04:52:16;;;;;;;7.60;6.40;;;;;;;3.48;92.92;96916.66;105902;1254;70085;-78
2023/11/24 04:54:43;;;;;;;7.40;5.40;;;;;;;3.45;92.59;96904.00;106096;1254;72916;-80
2023/11/24 04:57:11;;;;;;;8.80;6.60;;;;;;;3.44;92.66;96906.17;106079;1253;60912;-80
2023/11/24 04:59:40;;;;;;;8.50;6.30;;;;;;;3.50;92.86;96890.67;108750;1252;59192;-80
2023/11/24 05:02:07;;;;;;;8.20;5.70;;;;;;;3.52;93.05;96893.14;107054;1255;72675;-81
2023/11/24 05:04:36;;;;;;;11.00;6.90;;;;;;;3.48;93.17;96901.24;107129;1254;70451;-79
2023/11/24 05:07:04;;;;;;;9.50;6.80;;;;;;;3.52;92.70;96897.09;106559;1253;71744;-82
2023/11/24 05:09:32;;;;;;;9.20;6.70;;;;;;;3.58;92.77;96900.90;106680;1256;61090;-82
2023/11/24 05:12:00;;;;;;;10.80;7.20;;;;;;;3.56;92.57;96905.84;106828;1253;60479;-82
2023/11/24 05:14:28;;;;;;;10.90;7.10;;;;;;;3.54;92.89;96918.03;106672;1256;73914;-81
2023/11/24 05:16:55;;;;;;;7.20;5.30;;;;;;;3.59;92.87;96922.30;106435;1254;70010;-79
2023/11/24 05:19:23;;;;;;;11.00;7.40;;;;;;;3.63;92.65;96921.92;106807;1253;71332;-81
2023/11/24 05:21:50;;;;;;;8.10;6.20;;;;;;;3.63;92.92;96923.02;107655;1254;60425;-81
2023/11/24 05:24:19;;;;;;;9.00;5.80;;;;;;;3.62;92.77;96909.20;108274;1252;59017;-82
2023/11/24 05:26:47;;;;;;;9.10;6.80;;;;;;;3.69;92.77;96903.58;106203;1257;72447;-82
2023/11/24 05:29:17;;;;;;;8.60;6.30;;;;;;;3.71;92.49;96915.91;105973;1254;69959;-80
2023/11/24 05:31:44;;;;;;;12.50;8.30;;;;;;;3.67;92.70;96911.69;105763;1259;71872;-80
2023/11/24 05:34:12;;;;;;;11.40;7.50;;;;;;;3.70;92.72;96923.25;105920;1259;60561;-80
2023/11/24 05:36:42;;;;;;;9.40;6.80;;;;;;;3.71;92.56;96915.98;106420;1254;60530;-81
2023/11/24 05:39:11;;;;;;;8.60;6.40;;;;;;;3.73;92.25;96918.27;106318;1252;72799;-83
2023/11/24 05:41:39;;;;;;;10.60;8.00;;;;;;;3.76;92.23;96923.00;106033;1256;69043;-83
2023/11/24 05:44:07;;;;;;;9.80;7.00;;;;;;;3.72;92.12;96917.80;105986;1256;71460;-81
2023/11/24 05:46:34;;;;;;;8.10;6.10;;;;;;;3.70;92.18;96918.85;105856;1256;60922;-80
2023/11/24 05:49:03;;;;;;;9.60;6.60;;;;;;;3.72;92.14;96920.76;105869;1253;60332;-82
2023/11/24 05:51:32;;;;;;;10.20;7.10;;;;;;;3.76;92.32;96921.23;106383;1254;73784;-84
2023/11/24 05:53:59;;;;;;;10.00;7.10;;;;;;;3.72;92.49;96917.09;106429;1256;69163;-82
2023/11/24 05:56:27;;;;;;;10.80;7.60;;;;;;;3.73;92.82;96923.15;106288;1254;71358;-82
2023/11/24 05:58:56;;;;;;;9.50;7.50;;;;;;;3.79;92.60;96936.63;106327;1254;60309;-81
2023/11/24 06:01:23;;;;;;;10.60;7.00;;;;;;;3.75;92.85;96935.04;106432;1254;61075;-82
2023/11/24 06:03:51;;;;;;;9.70;7.50;;;;;;;3.76;92.44;96924.90;106196;1254;72689;-83
2023/11/24 06:06:18;;;;;;;8.80;7.00;;;;;;;3.82;92.59;96922.76;106291;1254;69992;-83
2023/11/24 06:08:46;;;;;;;8.60;6.70;;;;;;;3.84;92.53;96926.76;106376;1253;71571;-83
2023/11/24 06:11:17;;;;;;;8.10;6.60;;;;;;;3.80;92.85;96925.45;106417;1256;60431;-82
2023/11/24 06:13:46;;;;;;;8.20;5.80;;;;;;;3.83;92.36;96914.36;106582;1253;60528;-83
2023/11/24 06:16:14;;;;;;;8.10;6.50;;;;;;;3.88;92.30;96907.77;107683;1254;73839;-82
2023/11/24 06:18:42;;;;;;;10.30;7.00;;;;;;;3.85;92.07;96903.10;106394;1254;69936;-82
2023/11/24 06:21:12;;;;;;;9.30;6.70;;;;;;;3.86;92.20;96898.61;106113;1253;71593;-82
2023/11/24 06:23:39;;;;;;;8.30;6.90;;;;;;;3.91;91.90;96895.85;106243;1252;60498;-81
2023/11/24 06:26:08;;;;;;;7.90;5.70;;;;;;;3.95;92.26;96884.36;105984;1253;60620;-81
2023/11/24 06:28:35;;;;;;;10.30;7.50;;;;;;;3.91;92.04;96886.44;106295;1254;73355;-81
2023/11/24 06:31:03;;;;;;;8.50;6.40;;;;;;;3.90;92.20;96887.56;106980;1253;69983;-81
2023/11/24 06:33:31;;;;;;;8.00;5.90;;;;;;;3.97;92.14;96882.14;107400;1258;71400;-81
2023/11/24 06:36:00;;;;;;;8.30;6.60;;;;;;;4.00;91.92;96890.55;106198;1253;60582;-81
2023/11/24 06:38:27;;;;;;;9.30;6.80;;;;;;;3.96;91.90;96899.43;105897;1254;266573;-81
2023/11/24 06:41:48;;;;;;;6.80;6.10;;;;;;;4.05;91.48;96899.73;103090;1292;599561;-82
2023/11/24 06:44:16;;;;;;;8.30;6.60;;;;;;;4.06;91.26;96908.89;105711;1261;60457;-81
2023/11/24 06:46:43;;;;;;;7.60;6.10;;;;;;;4.12;90.79;96918.09;105598;1261;60020;-81
2023/11/24 06:49:11;;;;;;;8.50;6.80;;;;;;;4.19;91.06;96917.67;105593;1261;70784;-81
2023/11/24 06:51:40;;;;;;;7.20;6.40;;;;;;;4.22;90.71;96914.69;106324;1261;72198;-81
2023/11/24 06:54:08;;;;;;;8.30;7.00;;;;;;;4.23;90.82;96923.98;106153;1261;70936;-81
2023/11/24 06:56:36;;;;;;;7.30;5.70;;;;;;;4.19;90.17;96926.27;105398;1258;168691;-80
2023/11/24 06:59:03;;;;;;;7.50;5.20;;;;;;;4.26;89.61;96938.19;105517;1260;60016;-80
2023/11/24 07:01:31;;;;;;;7.50;6.00;;;;;;;4.33;89.28;96936.97;105568;1258;71061;-80
2023/11/24 07:04:04;;;;;;;9.00;6.60;;;;;;;4.32;89.71;96933.71;105746;1257;70093;-80
2023/11/24 07:06:31;;;;;;;7.70;5.40;;;;;;;4.36;88.77;96935.67;105721;1257;72958;-79
2023/11/24 07:08:59;;;;;;;7.00;5.80;;;;;;;4.37;88.55;96942.39;105666;1258;59650;-78
2023/11/24 07:11:27;;;;;;;7.20;5.90;;;;;;;4.36;89.08;96937.50;105787;1258;59570;-79
2023/11/24 07:13:54;;;;;;;8.60;6.00;;;;;;;4.43;89.00;96939.02;107846;1260;73121;-79
2023/11/24 07:16:22;;;;;;;6.90;4.90;;;;;;;4.51;88.44;96948.99;106476;1259;72211;-80
2023/11/24 07:18:50;;;;;;;8.20;5.30;;;;;;;4.49;87.36;96950.98;106197;1256;71460;-79
2023/11/24 07:21:18;;;;;;;7.00;4.80;;;;;;;4.47;87.81;96945.59;106114;1251;60375;-79
2023/11/24 07:23:45;;;;;;;7.50;5.10;;;;;;;4.55;87.45;96944.27;106153;1251;59704;-80
2023/11/24 07:26:16;;;;;;;6.30;4.70;;;;;;;4.61;86.62;96944.94;106181;1256;73077;-80
2023/11/24 07:28:44;;;;;;;6.10;4.50;;;;;;;4.57;86.51;96945.86;106893;1257;69280;-83
2023/11/24 07:31:16;;;;;;;6.80;4.70;;;;;;;4.59;86.29;96941.53;106739;1251;71078;-83
2023/11/24 07:33:48;;;;;;;6.70;4.80;;;;;;;4.68;86.42;96944.23;106309;1251;61027;-83
2023/11/24 07:36:17;;;;;;;6.50;4.80;;;;;;;4.68;86.35;96943.73;106524;1256;59620;-82
2023/11/24 07:38:45;;;;;;;4.40;3.90;;;;;;;4.66;85.89;96955.52;106888;1254;72103;-82
2023/11/24 07:41:14;;;;;;;6.50;4.70;;;;;;;4.70;85.42;96948.27;106935;1251;69091;-83
2023/11/24 07:43:42;;;;;;;5.40;4.00;;;;;;;4.68;85.83;96944.02;106686;1257;71679;-83
2023/11/24 07:46:11;;;;;;;6.40;3.80;;;;;;;4.72;85.96;96932.77;106274;1251;59701;-81
2023/11/24 07:48:40;;;;;;;5.90;4.00;;;;;;;4.70;85.76;96933.75;106513;1258;59631;-83
2023/11/24 07:51:08;;;;;;;5.50;4.00;;;;;;;4.64;86.06;96931.35;107268;1254;70541;-83
2023/11/24 07:53:36;;;;;;;5.40;3.90;;;;;;;4.69;85.71;96936.61;106886;1256;68720;-82
2023/11/24 07:56:07;;;;;;;6.60;3.80;;;;;;;4.73;85.40;96935.53;106174;1257;71502;-82
2023/11/24 07:58:34;;;;;;;5.30;3.90;;;;;;;4.70;84.94;96938.84;106251;1257;60451;-83
2023/11/24 08:01:02;;;;;;;5.40;3.80;;;;;;;4.76;85.10;96934.77;106175;1257;59637;-84
2023/11/24 08:03:34;;;;;;;6.10;4.30;;;;;;;4.71;84.92;96943.21;106318;1253;72111;-83
2023/11/24 08:06:07;;;;;;;5.50;3.70;;;;;;;4.65;85.40;96944.08;106267;1256;69247;-82
2023/11/24 08:08:35;;;;;;;4.60;3.50;;;;;;;4.67;85.25;96946.58;106078;1254;71973;-79
2023/11/24 08:11:03;;;;;;;5.50;4.60;;;;;;;4.69;84.82;96946.86;106156;1252;60518;-81
2023/11/24 08:13:30;;;;;;;4.60;3.90;;;;;;;4.65;85.55;96956.02;106064;1253;59697;-80
2023/11/24 08:15:58;;;;;;;5.00;3.70;;;;;;;4.67;85.32;96965.73;106179;1254;71869;-80
2023/11/24 08:18:26;;;;;;;4.50;3.20;;;;;;;4.76;85.17;96971.87;106743;1254;69917;-82
2023/11/24 08:20:54;;;;;;;6.30;4.40;;;;;;;4.75;84.30;96970.94;106418;1257;71447;-82
2023/11/24 08:23:21;;;;;;;5.20;3.50;;;;;;;4.72;84.71;96967.35;106283;1254;59729;-84
2023/11/24 08:25:49;;;;;;;6.30;4.00;;;;;;;4.79;84.92;96975.56;106567;1258;59553;-81
2023/11/24 08:28:16;;;;;;;6.50;3.80;;;;;;;4.83;85.64;96973.95;106320;1257;73034;-82
2023/11/24 08:30:44;;;;;;;6.00;4.20;;;;;;;4.92;86.75;96969.34;106268;1256;69089;-83
2023/11/24 08:33:11;;;;;;;4.70;3.80;;;;;;;5.12;86.05;96975.70;106320;1254;71366;-83
2023/11/24 08:35:39;;;;;;;5.70;4.50;;;;;;;5.18;84.64;96970.11;106357;1254;59663;-80
2023/11/24 08:38:07;;;;;;;7.90;5.20;;;;;;;5.11;84.69;96962.05;106249;1254;60092;-81
2023/11/24 08:40:34;;;;;;;7.80;5.20;;;;;;;5.11;84.77;96965.30;106042;1254;75554;-79
2023/11/24 08:43:02;;;;;;;7.40;5.50;;;;;;;5.12;85.02;96961.89;106182;1257;68977;-83
2023/11/24 08:45:30;;;;;;;7.20;4.70;;;;;;;5.08;85.26;96957.56;106137;1254;72920;-81
2023/11/24 08:47:58;;;;;;;7.20;4.50;;;;;;;5.12;84.60;96968.65;106045;1254;61365;-79
2023/11/24 08:50:28;;;;;;;5.70;4.40;;;;;;;5.17;83.48;96951.36;106033;1251;59784;-80
2023/11/24 08:52:56;;;;;;;6.40;4.50;;;;;;;5.13;83.86;96949.05;106162;1254;71799;-80
2023/11/24 08:55:23;;;;;;;5.70;3.60;;;;;;;5.10;84.13;96956.23;106031;1256;68963;-80
2023/11/24 08:57:51;;;;;;;7.60;4.70;;;;;;;5.17;83.61;96945.89;106030;1254;72701;-78
2023/11/24 09:00:19;;;;;;;7.20;4.00;;;;;;;5.21;83.59;96947.60;106138;1256;59603;-80
2023/11/24 09:02:47;;;;;;;6.20;4.10;;;;;;;5.17;83.22;96950.31;105990;1254;60046;-80
2023/11/24 09:05:15;;;;;;;5.80;3.80;;;;;;;5.13;82.38;96959.38;105823;1254;73078;-81
2023/11/24 09:07:44;;;;;;;6.70;4.60;;;;;;;5.19;82.27;96948.41;106228;1254;70104;-83
2023/11/24 09:10:12;;;;;;;9.50;6.00;;;;;;;5.15;82.08;96958.17;106204;1258;71381;-83
2023/11/24 09:12:39;;;;;;;11.20;5.70;;;;;;;5.06;82.70;96956.30;106373;1254;60474;-83
2023/11/24 09:15:07;;;;;;;6.90;4.90;;;;;;;5.04;82.77;96961.93;106135;1259;59918;-83
2023/11/24 09:17:35;;;;;;;9.20;5.80;;;;;;;5.05;82.36;96952.94;106493;1254;72386;-83
2023/11/24 09:20:06;;;;;;;6.50;4.90;;;;;;;4.93;82.83;96954.39;107398;1254;68988;-82
2023/11/24 09:22:34;;;;;;;8.50;5.10;;;;;;;4.88;83.13;96959.48;107948;1256;71925;-83
2023/11/24 09:25:02;;;;;;;8.40;5.60;;;;;;;4.92;83.19;96953.45;108087;1252;64001;-83
2023/11/24 09:27:34;;;;;;;11.90;7.60;;;;;;;4.94;82.97;96954.27;107938;1254;61672;-83
2023/11/24 09:30:04;;;;;;;11.40;5.80;;;;;;;4.87;83.04;96950.33;107463;1254;73095;-84
2023/11/24 09:32:34;;;;;;;9.70;5.10;;;;;;;4.81;83.06;96943.16;108091;1254;69279;-81
2023/11/24 09:35:05;;;;;;;12.30;5.90;;;;;;;4.86;83.18;96940.09;107925;1253;75315;-83
2023/11/24 09:37:33;;;;;;;8.20;5.00;;;;;;;4.87;83.09;96931.10;107138;1253;60075;-83
2023/11/24 09:40:03;;;;;;;10.40;5.20;;;;;;;4.84;82.70;96929.31;107205;1253;61054;-84
2023/11/24 09:42:34;;;;;;;7.20;4.30;;;;;;;4.90;82.39;96916.90;106528;1254;72960;-79
2023/11/24 09:45:08;;;;;;;6.80;4.00;;;;;;;5.09;81.09;96911.33;105958;1257;68810;-79
2023/11/24 09:47:36;;;;;;;5.20;3.50;;;;;;;5.22;79.27;96910.71;106124;1256;72546;-81
2023/11/24 09:50:09;;;;;;;5.20;3.10;;;;;;;5.29;78.22;96922.37;105898;1254;60884;-79
2023/11/24 09:52:37;;;;;;;6.80;3.70;;;;;;;5.39;77.94;96909.08;106364;1254;60223;-81
2023/11/24 09:55:06;;;;;;;8.30;4.10;;;;;;;5.40;77.81;96919.05;106247;1254;73083;-81
2023/11/24 09:57:35;;;;;;;7.50;3.70;;;;;;;5.37;77.61;96928.86;106037;1257;70054;-80
2023/11/24 10:00:04;;;;;;;11.80;4.90;;;;;;;5.46;77.92;96935.73;106065;1254;74698;-81
2023/11/24 10:02:32;;;;;;;9.10;4.40;;;;;;;5.57;77.43;96946.58;106372;1259;59483;-80
2023/11/24 10:04:59;;;;;;;5.90;2.80;;;;;;;5.54;77.08;96953.14;106378;1254;60062;-83
2023/11/24 10:07:27;;;;;;;3.80;2.50;;;;;;;5.51;76.45;96962.05;106514;1253;73510;-83
2023/11/24 10:09:54;;;;;;;4.40;2.60;;;;;;;5.83;75.75;96956.66;108138;1254;69940;-83
2023/11/24 10:12:22;;;;;;;6.20;2.70;;;;;;;5.98;74.65;96954.10;107901;1254;71401;-83
2023/11/24 10:14:49;;;;;;;6.00;2.80;;;;;;;5.95;74.64;96963.19;108176;1257;59653;-84
2023/11/24 10:17:17;;;;;;;5.20;2.50;;;;;;;6.04;75.02;96961.09;106458;1260;59962;-85
2023/11/24 10:19:44;;;;;;;4.80;2.70;;;;;;;6.51;74.89;96947.11;106559;1253;71893;-84
2023/11/24 10:22:12;;;;;;;3.90;2.50;;;;;;;7.29;73.79;96939.23;106689;1256;68048;-84
2023/11/24 10:24:39;;;;;;;6.70;3.10;;;;;;;8.37;71.14;96939.13;106426;1255;71452;-82
2023/11/24 10:27:27;;;;;;;8.80;4.10;;;;;;;9.51;65.32;96942.77;106342;1252;60087;-82
2023/11/24 10:29:55;;;;;;;8.50;3.00;;;;;;;10.34;63.34;96931.44;106598;1253;60195;-83
2023/11/24 10:32:22;;;;;;;5.40;2.70;;;;;;;10.43;61.01;96934.06;106187;1254;74093;-84
2023/11/24 10:34:51;;;;;;;8.30;3.40;;;;;;;10.07;61.20;96930.63;106117;1254;70099;-83
2023/11/24 10:37:20;;;;;;;2.80;2.30;;;;;;;9.51;61.50;96929.89;106125;1258;74957;-83
2023/11/24 10:39:51;;;;;;;3.50;2.40;;;;;;;8.96;62.82;96929.85;106130;1254;59720;-83
2023/11/24 10:42:19;;;;;;;4.80;2.30;;;;;;;8.47;63.79;96935.14;105962;1253;59838;-83
2023/11/24 10:44:50;;;;;;;3.80;2.60;;;;;;;8.08;64.42;96940.11;106228;1254;72221;-83
2023/11/24 10:47:23;;;;;;;4.90;2.50;;;;;;;7.73;65.19;96947.39;106280;1254;70378;-82
2023/11/24 10:50:12;;;;;;;4.30;2.50;;;;;;;7.41;66.26;96947.18;106195;1252;72778;-82
2023/11/24 10:52:51;;;;;;;4.30;2.60;;;;;;;7.07;66.97;96953.14;107189;1257;60440;-83
2023/11/24 10:55:19;;;;;;;5.50;3.50;;;;;;;6.80;67.55;96956.48;106353;1252;60335;-80
2023/11/24 10:57:47;;;;;;;2.90;2.00;;;;;;;6.68;68.10;96952.12;106435;1253;72606;-81
2023/11/24 11:00:15;;;;;;;3.60;2.20;;;;;;;6.61;68.32;96955.98;107141;1254;71502;-82
2023/11/24 11:02:42;;;;;;;3.50;1.90;;;;;;;6.46;68.77;96950.61;106019;1259;71767;-81
2023/11/24 11:05:42;;;;;;;3.50;2.20;;;;;;;6.27;69.08;96956.41;106203;1255;60529;-83
2023/11/24 11:08:21;;;;;;;4.80;2.30;;;;;;;6.06;69.41;96954.89;106484;1257;62488;-81
2023/11/24 11:11:00;;;;;;;3.20;1.70;;;;;;;5.99;69.03;96955.35;106401;1257;73910;-81
2023/11/24 11:13:30;;;;;;;3.50;1.90;;;;;;;5.89;69.60;96951.95;106392;1254;68731;-81
2023/11/24 11:15:57;;;;;;;4.30;2.60;;;;;;;5.74;69.65;96957.85;106111;1254;72884;-82
2023/11/24 11:18:25;;;;;;;3.30;1.80;;;;;;;5.59;69.60;96958.77;106074;1254;60428;-80
2023/11/24 11:20:54;;;;;;;5.00;2.00;;;;;;;5.54;69.59;96964.36;106242;1256;61130;-80
2023/11/24 11:23:23;;;;;;;4.80;1.90;;;;;;;5.49;69.47;96977.45;106156;1254;73879;-81
2023/11/24 11:25:53;;;;;;;4.10;2.70;;;;;;;5.35;69.60;96990.14;106268;1254;70019;-80
2023/11/24 11:28:23;;;;;;;4.40;2.10;;;;;;;5.17;70.98;96984.94;106416;1254;74681;-80
2023/11/24 11:30:58;;;;;;;3.20;1.90;;;;;;;4.95;72.33;96999.10;108221;1254;58703;-79
2023/11/24 11:33:27;;;;;;;4.10;2.10;;;;;;;4.79;73.60;96997.83;107464;1256;59240;-81